logo
Rechercher aéroport 
image banner adimage banner adimage banner ad
image banner ad

OLRA - Rayak Airbase

Situé à Houch Hala, Lebanon

ICAO - OLRA, IATA -

Données fournies par Airmate  

Information générale

Coordonnées: N33°51'6" E35°59'35"
Élévation : 2952 feet MSL.
Variation magnétique : 5° East
Voir autres Aéroports à Beqaa Governorate

Données opérationnelles

Special qualification required
Heure actuelle UTC:
Heure actuelle locale:
METAR: OLBA 230000Z 29003KT 7000 NSC 24/21 Q1011 NOSIG
TAF: TAF OLBA 222200Z 2300/2406 VRB02KT 7000 NSC TEMPO 2300/2318 5000 BR BECMG 2306/2309 22010KT BECMG 2320/2322 16004KT SCT026
Voir NOTAMs / SUP AIP / TFR affectant cet aéroport [VIEW]
Fréquences de communication: [VIEW]

Pistes:

Identifiant RWYQFULongueur (ft)Largeur (ft)SurfaceLDA (ft)
0443°9507148CON
22223°9507148CON

Coordonnées de l'aéroport

Adresse: Houch Hala Lebanon

Vue satellite de OLRA